sensor_id;sensor_type;location;lat;lon;timestamp;temperature;humidity
41481;DHT22;27217;51.220;5.308;2023-06-01T00:01:53;16.10;99.90
41481;DHT22;27217;51.220;5.308;2023-06-01T00:04:19;16.10;99.90
41481;DHT22;27217;51.220;5.308;2023-06-01T00:06:45;16.00;99.90
41481;DHT22;27217;51.220;5.308;2023-06-01T00:09:11;16.10;99.90
41481;DHT22;27217;51.220;5.308;2023-06-01T00:11:37;16.00;99.90
41481;DHT22;27217;51.220;5.308;2023-06-01T00:14:03;16.10;99.90
41481;DHT22;27217;51.220;5.308;2023-06-01T00:16:29;15.90;99.90
41481;DHT22;27217;51.220;5.308;2023-06-01T00:18:56;15.90;99.90
41481;DHT22;27217;51.220;5.308;2023-06-01T00:21:27;15.80;99.90
41481;DHT22;27217;51.220;5.308;2023-06-01T00:23:53;15.70;99.90
41481;DHT22;27217;51.220;5.308;2023-06-01T00:26:19;15.70;99.90
41481;DHT22;27217;51.220;5.308;2023-06-01T00:28:45;15.60;99.90
41481;DHT22;27217;51.220;5.308;2023-06-01T00:31:11;15.60;99.90
41481;DHT22;27217;51.220;5.308;2023-06-01T00:33:37;15.70;99.90
41481;DHT22;27217;51.220;5.308;2023-06-01T00:36:03;15.60;99.90
41481;DHT22;27217;51.220;5.308;2023-06-01T00:38:28;15.50;99.90
41481;DHT22;27217;51.220;5.308;2023-06-01T00:40:54;15.40;99.90
41481;DHT22;27217;51.220;5.308;2023-06-01T00:43:20;15.40;99.90
41481;DHT22;27217;51.220;5.308;2023-06-01T00:45:46;15.40;99.90
41481;DHT22;27217;51.220;5.308;2023-06-01T00:48:14;15.50;99.90
41481;DHT22;27217;51.220;5.308;2023-06-01T00:50:43;15.70;99.90
41481;DHT22;27217;51.220;5.308;2023-06-01T00:53:16;15.50;99.90
41481;DHT22;27217;51.220;5.308;2023-06-01T00:55:42;15.40;99.90
41481;DHT22;27217;51.220;5.308;2023-06-01T00:58:08;15.30;99.90
41481;DHT22;27217;51.220;5.308;2023-06-01T01:00:33;15.30;99.90
41481;DHT22;27217;51.220;5.308;2023-06-01T01:03:03;15.30;99.90
41481;DHT22;27217;51.220;5.308;2023-06-01T01:05:33;15.20;99.90
41481;DHT22;27217;51.220;5.308;2023-06-01T01:08:09;15.20;99.90
41481;DHT22;27217;51.220;5.308;2023-06-01T01:13:34;14.90;99.90
41481;DHT22;27217;51.220;5.308;2023-06-01T01:16:03;14.90;99.90
41481;DHT22;27217;51.220;5.308;2023-06-01T01:18:57;14.90;99.90
41481;DHT22;27217;51.220;5.308;2023-06-01T01:21:31;14.80;99.90
41481;DHT22;27217;51.220;5.308;2023-06-01T01:27:14;14.90;99.90
41481;DHT22;27217;51.220;5.308;2023-06-01T01:29:43;14.80;99.90
41481;DHT22;27217;51.220;5.308;2023-06-01T01:32:11;14.70;99.90
41481;DHT22;27217;51.220;5.308;2023-06-01T01:34:38;14.60;99.90
41481;DHT22;27217;51.220;5.308;2023-06-01T01:37:05;14.60;99.90
41481;DHT22;27217;51.220;5.308;2023-06-01T01:39:32;14.60;99.90
41481;DHT22;27217;51.220;5.308;2023-06-01T01:41:58;14.50;99.90
41481;DHT22;27217;51.220;5.308;2023-06-01T01:44:23;14.40;99.90
41481;DHT22;27217;51.220;5.308;2023-06-01T01:47:31;14.30;99.90
41481;DHT22;27217;51.220;5.308;2023-06-01T01:50:06;14.30;99.90
41481;DHT22;27217;51.220;5.308;2023-06-01T01:52:36;14.10;99.90
41481;DHT22;27217;51.220;5.308;2023-06-01T01:55:06;14.00;99.90
41481;DHT22;27217;51.220;5.308;2023-06-01T01:57:34;14.00;99.90
41481;DHT22;27217;51.220;5.308;2023-06-01T02:00:02;14.00;99.90
41481;DHT22;27217;51.220;5.308;2023-06-01T02:02:28;14.10;99.90
41481;DHT22;27217;51.220;5.308;2023-06-01T02:04:55;14.00;99.90
41481;DHT22;27217;51.220;5.308;2023-06-01T02:07:27;13.90;99.90
41481;DHT22;27217;51.220;5.308;2023-06-01T02:09:53;13.80;99.90
41481;DHT22;27217;51.220;5.308;2023-06-01T02:12:18;13.60;99.90
41481;DHT22;27217;51.220;5.308;2023-06-01T02:14:45;13.50;99.90
41481;DHT22;27217;51.220;5.308;2023-06-01T02:17:11;13.40;99.90
41481;DHT22;27217;51.220;5.308;2023-06-01T02:19:37;13.60;99.90
41481;DHT22;27217;51.220;5.308;2023-06-01T02:22:02;13.40;99.90
41481;DHT22;27217;51.220;5.308;2023-06-01T02:24:30;13.40;99.90
41481;DHT22;27217;51.220;5.308;2023-06-01T02:26:56;13.40;99.90
41481;DHT22;27217;51.220;5.308;2023-06-01T02:29:22;13.40;99.90
41481;DHT22;27217;51.220;5.308;2023-06-01T02:31:48;13.30;99.90
41481;DHT22;27217;51.220;5.308;2023-06-01T02:34:16;13.30;99.90
41481;DHT22;27217;51.220;5.308;2023-06-01T02:36:42;13.20;99.90
41481;DHT22;27217;51.220;5.308;2023-06-01T02:39:08;13.10;99.90
41481;DHT22;27217;51.220;5.308;2023-06-01T02:41:34;13.00;99.90
41481;DHT22;27217;51.220;5.308;2023-06-01T02:44:00;12.90;99.90
41481;DHT22;27217;51.220;5.308;2023-06-01T02:46:26;12.90;99.90
41481;DHT22;27217;51.220;5.308;2023-06-01T02:48:52;12.90;99.90
41481;DHT22;27217;51.220;5.308;2023-06-01T02:51:18;12.70;99.90
41481;DHT22;27217;51.220;5.308;2023-06-01T02:53:44;12.40;99.90
41481;DHT22;27217;51.220;5.308;2023-06-01T02:56:12;12.40;99.90
41481;DHT22;27217;51.220;5.308;2023-06-01T02:58:38;12.40;99.90
41481;DHT22;27217;51.220;5.308;2023-06-01T03:01:04;12.30;99.90
41481;DHT22;27217;51.220;5.308;2023-06-01T03:03:30;12.40;99.90
41481;DHT22;27217;51.220;5.308;2023-06-01T03:05:56;12.40;99.90
41481;DHT22;27217;51.220;5.308;2023-06-01T03:08:25;12.40;99.90
41481;DHT22;27217;51.220;5.308;2023-06-01T03:10:51;12.30;99.90
41481;DHT22;27217;51.220;5.308;2023-06-01T03:13:17;12.30;99.90
41481;DHT22;27217;51.220;5.308;2023-06-01T03:15:43;12.20;99.90
41481;DHT22;27217;51.220;5.308;2023-06-01T03:18:09;12.30;99.90
41481;DHT22;27217;51.220;5.308;2023-06-01T03:20:35;12.20;99.90
41481;DHT22;27217;51.220;5.308;2023-06-01T03:23:01;12.20;99.90
41481;DHT22;27217;51.220;5.308;2023-06-01T03:25:26;12.40;99.90
41481;DHT22;27217;51.220;5.308;2023-06-01T03:27:52;12.30;99.90
41481;DHT22;27217;51.220;5.308;2023-06-01T03:30:18;12.20;99.90
41481;DHT22;27217;51.220;5.308;2023-06-01T03:32:44;12.30;99.90
41481;DHT22;27217;51.220;5.308;2023-06-01T03:35:12;12.20;99.90
41481;DHT22;27217;51.220;5.308;2023-06-01T03:37:40;12.30;99.90
41481;DHT22;27217;51.220;5.308;2023-06-01T03:40:07;12.20;99.90
41481;DHT22;27217;51.220;5.308;2023-06-01T03:42:41;12.20;99.90
41481;DHT22;27217;51.220;5.308;2023-06-01T03:45:08;12.00;99.90
41481;DHT22;27217;51.220;5.308;2023-06-01T03:47:34;11.90;99.90
41481;DHT22;27217;51.220;5.308;2023-06-01T03:50:01;11.90;99.90
41481;DHT22;27217;51.220;5.308;2023-06-01T03:52:28;12.00;99.90
41481;DHT22;27217;51.220;5.308;2023-06-01T03:54:55;11.90;99.90
41481;DHT22;27217;51.220;5.308;2023-06-01T03:57:21;11.90;99.90
41481;DHT22;27217;51.220;5.308;2023-06-01T03:59:47;11.80;99.90
41481;DHT22;27217;51.220;5.308;2023-06-01T04:02:13;11.90;99.90
41481;DHT22;27217;51.220;5.308;2023-06-01T04:04:39;11.80;99.90
41481;DHT22;27217;51.220;5.308;2023-06-01T04:07:11;11.80;99.90
41481;DHT22;27217;51.220;5.308;2023-06-01T04:09:40;11.80;99.90
41481;DHT22;27217;51.220;5.308;2023-06-01T04:12:06;12.00;99.90
41481;DHT22;27217;51.220;5.308;2023-06-01T04:14:34;11.90;99.90
41481;DHT22;27217;51.220;5.308;2023-06-01T04:17:00;11.90;99.90
41481;DHT22;27217;51.220;5.308;2023-06-01T04:19:26;11.80;99.90
41481;DHT22;27217;51.220;5.308;2023-06-01T04:21:52;11.80;99.90
41481;DHT22;27217;51.220;5.308;2023-06-01T04:24:18;11.70;99.90
41481;DHT22;27217;51.220;5.308;2023-06-01T04:26:44;11.60;99.90
41481;DHT22;27217;51.220;5.308;2023-06-01T04:29:10;11.50;99.90
41481;DHT22;27217;51.220;5.308;2023-06-01T04:31:38;11.50;99.90
41481;DHT22;27217;51.220;5.308;2023-06-01T04:34:04;11.80;99.90
41481;DHT22;27217;51.220;5.308;2023-06-01T04:36:33;11.80;99.90
41481;DHT22;27217;51.220;5.308;2023-06-01T04:39:02;11.90;99.90
41481;DHT22;27217;51.220;5.308;2023-06-01T04:41:31;12.10;99.90
41481;DHT22;27217;51.220;5.308;2023-06-01T04:43:57;12.20;99.90
41481;DHT22;27217;51.220;5.308;2023-06-01T04:46:24;12.40;99.90
41481;DHT22;27217;51.220;5.308;2023-06-01T04:48:55;12.50;99.90
41481;DHT22;27217;51.220;5.308;2023-06-01T04:51:23;12.60;99.90
41481;DHT22;27217;51.220;5.308;2023-06-01T04:53:51;12.40;99.90
41481;DHT22;27217;51.220;5.308;2023-06-01T04:56:18;12.30;99.90
41481;DHT22;27217;51.220;5.308;2023-06-01T04:58:47;12.30;99.90
41481;DHT22;27217;51.220;5.308;2023-06-01T05:01:16;12.10;99.90
41481;DHT22;27217;51.220;5.308;2023-06-01T05:03:51;12.20;99.90
41481;DHT22;27217;51.220;5.308;2023-06-01T05:06:19;12.30;99.90
41481;DHT22;27217;51.220;5.308;2023-06-01T05:08:45;12.50;99.90
41481;DHT22;27217;51.220;5.308;2023-06-01T05:11:11;12.30;99.90
41481;DHT22;27217;51.220;5.308;2023-06-01T05:13:38;12.40;99.90
41481;DHT22;27217;51.220;5.308;2023-06-01T05:16:05;12.60;99.90
41481;DHT22;27217;51.220;5.308;2023-06-01T05:18:32;12.50;99.90
41481;DHT22;27217;51.220;5.308;2023-06-01T05:20:59;12.60;99.90
41481;DHT22;27217;51.220;5.308;2023-06-01T05:23:25;12.60;99.90
41481;DHT22;27217;51.220;5.308;2023-06-01T05:25:52;12.40;99.90
41481;DHT22;27217;51.220;5.308;2023-06-01T05:28:18;12.30;99.90
41481;DHT22;27217;51.220;5.308;2023-06-01T05:30:46;12.10;99.90
41481;DHT22;27217;51.220;5.308;2023-06-01T05:33:12;12.10;99.90
41481;DHT22;27217;51.220;5.308;2023-06-01T05:35:38;12.10;99.90
41481;DHT22;27217;51.220;5.308;2023-06-01T05:38:04;12.30;99.90
41481;DHT22;27217;51.220;5.308;2023-06-01T05:40:29;12.20;99.90
41481;DHT22;27217;51.220;5.308;2023-06-01T05:42:55;12.30;99.90
41481;DHT22;27217;51.220;5.308;2023-06-01T05:45:21;12.40;99.90
41481;DHT22;27217;51.220;5.308;2023-06-01T05:47:47;12.20;99.90
41481;DHT22;27217;51.220;5.308;2023-06-01T05:50:13;12.20;99.90
41481;DHT22;27217;51.220;5.308;2023-06-01T05:52:39;12.30;99.90
41481;DHT22;27217;51.220;5.308;2023-06-01T05:55:08;12.30;99.90
41481;DHT22;27217;51.220;5.308;2023-06-01T05:57:34;12.20;99.90
41481;DHT22;27217;51.220;5.308;2023-06-01T05:59:59;12.40;99.90
41481;DHT22;27217;51.220;5.308;2023-06-01T06:02:25;12.40;99.90
41481;DHT22;27217;51.220;5.308;2023-06-01T06:04:51;12.50;99.90
41481;DHT22;27217;51.220;5.308;2023-06-01T06:07:17;12.60;99.90
41481;DHT22;27217;51.220;5.308;2023-06-01T06:09:43;12.40;99.90
41481;DHT22;27217;51.220;5.308;2023-06-01T06:12:09;12.50;99.90
41481;DHT22;27217;51.220;5.308;2023-06-01T06:14:36;12.50;99.90
41481;DHT22;27217;51.220;5.308;2023-06-01T06:17:01;12.40;99.90
41481;DHT22;27217;51.220;5.308;2023-06-01T06:19:28;12.40;99.90
41481;DHT22;27217;51.220;5.308;2023-06-01T06:21:53;12.50;99.90
41481;DHT22;27217;51.220;5.308;2023-06-01T06:24:20;12.80;99.90
41481;DHT22;27217;51.220;5.308;2023-06-01T06:26:47;13.00;99.90
41481;DHT22;27217;51.220;5.308;2023-06-01T06:29:13;13.10;99.90
41481;DHT22;27217;51.220;5.308;2023-06-01T06:31:39;12.80;99.90
41481;DHT22;27217;51.220;5.308;2023-06-01T06:34:14;12.70;99.90
41481;DHT22;27217;51.220;5.308;2023-06-01T06:36:40;12.70;99.90
41481;DHT22;27217;51.220;5.308;2023-06-01T06:39:06;12.70;99.90
41481;DHT22;27217;51.220;5.308;2023-06-01T06:41:32;12.80;99.90
41481;DHT22;27217;51.220;5.308;2023-06-01T06:43:58;12.80;99.90
41481;DHT22;27217;51.220;5.308;2023-06-01T06:46:24;12.60;99.90
41481;DHT22;27217;51.220;5.308;2023-06-01T06:48:49;12.70;99.90
41481;DHT22;27217;51.220;5.308;2023-06-01T06:51:15;12.70;99.90
41481;DHT22;27217;51.220;5.308;2023-06-01T06:53:41;12.80;99.90
41481;DHT22;27217;51.220;5.308;2023-06-01T06:56:07;12.80;99.90
41481;DHT22;27217;51.220;5.308;2023-06-01T06:58:34;13.00;99.90
41481;DHT22;27217;51.220;5.308;2023-06-01T07:00:59;13.10;99.90
41481;DHT22;27217;51.220;5.308;2023-06-01T07:03:30;13.00;99.90
41481;DHT22;27217;51.220;5.308;2023-06-01T07:05:56;13.10;99.90
41481;DHT22;27217;51.220;5.308;2023-06-01T07:08:22;13.20;99.90
41481;DHT22;27217;51.220;5.308;2023-06-01T07:10:48;13.40;99.90
41481;DHT22;27217;51.220;5.308;2023-06-01T07:13:13;13.50;99.90
41481;DHT22;27217;51.220;5.308;2023-06-01T07:15:40;13.70;99.90
41481;DHT22;27217;51.220;5.308;2023-06-01T07:18:06;13.80;99.90
41481;DHT22;27217;51.220;5.308;2023-06-01T07:20:32;14.00;99.90
41481;DHT22;27217;51.220;5.308;2023-06-01T07:22:58;14.20;99.90
41481;DHT22;27217;51.220;5.308;2023-06-01T07:25:24;14.30;99.90
41481;DHT22;27217;51.220;5.308;2023-06-01T07:27:50;14.50;99.90
41481;DHT22;27217;51.220;5.308;2023-06-01T07:30:16;14.40;99.90
41481;DHT22;27217;51.220;5.308;2023-06-01T07:32:42;14.50;99.90
41481;DHT22;27217;51.220;5.308;2023-06-01T07:35:09;14.50;99.90
41481;DHT22;27217;51.220;5.308;2023-06-01T07:37:35;14.70;99.90
41481;DHT22;27217;51.220;5.308;2023-06-01T07:40:01;14.70;99.90
41481;DHT22;27217;51.220;5.308;2023-06-01T07:42:27;14.50;99.90
41481;DHT22;27217;51.220;5.308;2023-06-01T07:44:53;14.80;99.90
41481;DHT22;27217;51.220;5.308;2023-06-01T07:47:18;14.70;99.90
41481;DHT22;27217;51.220;5.308;2023-06-01T07:49:45;14.80;99.90
41481;DHT22;27217;51.220;5.308;2023-06-01T07:52:11;14.80;99.90
41481;DHT22;27217;51.220;5.308;2023-06-01T07:54:36;14.60;99.90
41481;DHT22;27217;51.220;5.308;2023-06-01T07:57:03;14.40;99.90
41481;DHT22;27217;51.220;5.308;2023-06-01T07:59:30;14.50;99.90
41481;DHT22;27217;51.220;5.308;2023-06-01T08:01:56;14.80;99.90
41481;DHT22;27217;51.220;5.308;2023-06-01T08:04:22;14.80;99.90
41481;DHT22;27217;51.220;5.308;2023-06-01T08:06:49;15.00;99.90
41481;DHT22;27217;51.220;5.308;2023-06-01T08:09:21;15.10;99.90
41481;DHT22;27217;51.220;5.308;2023-06-01T08:11:48;15.10;99.90
41481;DHT22;27217;51.220;5.308;2023-06-01T08:14:14;15.20;99.90
41481;DHT22;27217;51.220;5.308;2023-06-01T08:16:41;15.50;99.90
41481;DHT22;27217;51.220;5.308;2023-06-01T08:19:07;15.20;99.90
41481;DHT22;27217;51.220;5.308;2023-06-01T08:21:34;15.30;99.90
41481;DHT22;27217;51.220;5.308;2023-06-01T08:24:00;15.40;99.90
41481;DHT22;27217;51.220;5.308;2023-06-01T08:26:27;15.50;99.90
41481;DHT22;27217;51.220;5.308;2023-06-01T08:28:53;15.70;99.90
41481;DHT22;27217;51.220;5.308;2023-06-01T08:31:20;15.50;99.90
41481;DHT22;27217;51.220;5.308;2023-06-01T08:33:46;15.70;99.90
41481;DHT22;27217;51.220;5.308;2023-06-01T08:36:12;15.90;99.90
41481;DHT22;27217;51.220;5.308;2023-06-01T08:38:39;15.90;99.90
41481;DHT22;27217;51.220;5.308;2023-06-01T08:41:14;16.20;99.90
41481;DHT22;27217;51.220;5.308;2023-06-01T08:43:45;16.20;99.90
41481;DHT22;27217;51.220;5.308;2023-06-01T08:46:15;16.30;99.90
41481;DHT22;27217;51.220;5.308;2023-06-01T08:48:43;16.20;99.90
41481;DHT22;27217;51.220;5.308;2023-06-01T08:51:09;15.90;99.90
41481;DHT22;27217;51.220;5.308;2023-06-01T08:53:36;16.00;99.90
41481;DHT22;27217;51.220;5.308;2023-06-01T08:56:04;16.20;99.90
41481;DHT22;27217;51.220;5.308;2023-06-01T08:58:30;16.20;99.90
41481;DHT22;27217;51.220;5.308;2023-06-01T09:00:56;16.20;99.90
41481;DHT22;27217;51.220;5.308;2023-06-01T09:03:23;16.30;99.90
41481;DHT22;27217;51.220;5.308;2023-06-01T09:05:49;16.30;99.90
41481;DHT22;27217;51.220;5.308;2023-06-01T09:08:15;16.40;99.90
41481;DHT22;27217;51.220;5.308;2023-06-01T09:10:41;16.90;99.90
41481;DHT22;27217;51.220;5.308;2023-06-01T09:13:07;16.90;99.90
41481;DHT22;27217;51.220;5.308;2023-06-01T09:15:33;16.90;99.90
41481;DHT22;27217;51.220;5.308;2023-06-01T09:18:09;17.00;99.90
41481;DHT22;27217;51.220;5.308;2023-06-01T09:20:39;16.80;99.90
41481;DHT22;27217;51.220;5.308;2023-06-01T09:23:06;17.00;99.90
41481;DHT22;27217;51.220;5.308;2023-06-01T09:25:33;17.40;99.90
41481;DHT22;27217;51.220;5.308;2023-06-01T09:28:00;17.70;99.90
41481;DHT22;27217;51.220;5.308;2023-06-01T09:30:42;17.60;99.90
41481;DHT22;27217;51.220;5.308;2023-06-01T09:35:41;17.90;99.90
41481;DHT22;27217;51.220;5.308;2023-06-01T09:38:07;18.00;99.90
41481;DHT22;27217;51.220;5.308;2023-06-01T09:40:33;17.90;99.90
41481;DHT22;27217;51.220;5.308;2023-06-01T09:43:02;18.10;99.90
41481;DHT22;27217;51.220;5.308;2023-06-01T09:45:31;18.10;99.90
41481;DHT22;27217;51.220;5.308;2023-06-01T09:48:18;18.30;99.90
41481;DHT22;27217;51.220;5.308;2023-06-01T09:50:44;18.50;99.90
41481;DHT22;27217;51.220;5.308;2023-06-01T09:53:10;18.60;99.90
41481;DHT22;27217;51.220;5.308;2023-06-01T09:55:36;18.70;99.90
41481;DHT22;27217;51.220;5.308;2023-06-01T09:58:21;18.70;99.90
41481;DHT22;27217;51.220;5.308;2023-06-01T10:00:48;18.70;99.90
41481;DHT22;27217;51.220;5.308;2023-06-01T10:03:15;18.60;99.90
41481;DHT22;27217;51.220;5.308;2023-06-01T10:05:45;18.70;99.90
41481;DHT22;27217;51.220;5.308;2023-06-01T10:08:13;18.80;99.90
41481;DHT22;27217;51.220;5.308;2023-06-01T10:10:43;19.00;99.90
41481;DHT22;27217;51.220;5.308;2023-06-01T10:13:10;19.00;99.90
41481;DHT22;27217;51.220;5.308;2023-06-01T10:15:36;18.90;99.90
41481;DHT22;27217;51.220;5.308;2023-06-01T10:18:03;19.00;99.80
41481;DHT22;27217;51.220;5.308;2023-06-01T10:20:34;19.00;99.60
41481;DHT22;27217;51.220;5.308;2023-06-01T10:23:01;19.20;99.20
41481;DHT22;27217;51.220;5.308;2023-06-01T10:25:31;19.30;98.40
41481;DHT22;27217;51.220;5.308;2023-06-01T10:28:04;19.60;98.80
41481;DHT22;27217;51.220;5.308;2023-06-01T10:30:33;20.00;97.30
41481;DHT22;27217;51.220;5.308;2023-06-01T10:32:59;19.80;96.90
41481;DHT22;27217;51.220;5.308;2023-06-01T10:40:44;20.30;95.20
41481;DHT22;27217;51.220;5.308;2023-06-01T10:43:39;20.10;95.30
41481;DHT22;27217;51.220;5.308;2023-06-01T10:46:34;20.30;94.60
41481;DHT22;27217;51.220;5.308;2023-06-01T10:49:01;20.50;94.10
41481;DHT22;27217;51.220;5.308;2023-06-01T10:51:27;20.60;92.50
41481;DHT22;27217;51.220;5.308;2023-06-01T10:53:54;21.00;91.60
41481;DHT22;27217;51.220;5.308;2023-06-01T10:56:20;21.00;91.20
41481;DHT22;27217;51.220;5.308;2023-06-01T11:01:43;21.10;92.00
41481;DHT22;27217;51.220;5.308;2023-06-01T11:04:09;21.20;91.20
41481;DHT22;27217;51.220;5.308;2023-06-01T11:06:38;21.30;90.40
41481;DHT22;27217;51.220;5.308;2023-06-01T11:09:11;21.60;88.10
41481;DHT22;27217;51.220;5.308;2023-06-01T11:14:29;23.80;77.50
41481;DHT22;27217;51.220;5.308;2023-06-01T11:17:26;25.80;69.10
41481;DHT22;27217;51.220;5.308;2023-06-01T11:19:57;25.90;63.10
41481;DHT22;27217;51.220;5.308;2023-06-01T11:22:24;26.70;60.40
41481;DHT22;27217;51.220;5.308;2023-06-01T11:24:51;27.10;57.00
41481;DHT22;27217;51.220;5.308;2023-06-01T11:27:20;27.70;55.20
41481;DHT22;27217;51.220;5.308;2023-06-01T11:29:48;28.50;52.60
41481;DHT22;27217;51.220;5.308;2023-06-01T11:32:15;28.40;52.40
41481;DHT22;27217;51.220;5.308;2023-06-01T11:34:41;28.00;52.00
41481;DHT22;27217;51.220;5.308;2023-06-01T11:37:14;28.30;52.70
41481;DHT22;27217;51.220;5.308;2023-06-01T11:39:41;29.10;51.30
41481;DHT22;27217;51.220;5.308;2023-06-01T11:42:15;28.90;50.50
41481;DHT22;27217;51.220;5.308;2023-06-01T11:44:44;29.20;49.50
41481;DHT22;27217;51.220;5.308;2023-06-01T11:47:11;28.10;50.30
41481;DHT22;27217;51.220;5.308;2023-06-01T11:49:47;28.00;49.80
41481;DHT22;27217;51.220;5.308;2023-06-01T11:52:15;27.50;50.10
41481;DHT22;27217;51.220;5.308;2023-06-01T11:54:41;27.20;51.00
41481;DHT22;27217;51.220;5.308;2023-06-01T11:57:07;27.60;50.40
41481;DHT22;27217;51.220;5.308;2023-06-01T12:02:04;28.20;49.70
41481;DHT22;27217;51.220;5.308;2023-06-01T12:04:40;28.50;49.10
41481;DHT22;27217;51.220;5.308;2023-06-01T12:07:07;28.80;47.70
41481;DHT22;27217;51.220;5.308;2023-06-01T12:09:34;28.50;48.40
41481;DHT22;27217;51.220;5.308;2023-06-01T12:12:02;29.20;47.80
41481;DHT22;27217;51.220;5.308;2023-06-01T12:14:28;29.40;47.30
41481;DHT22;27217;51.220;5.308;2023-06-01T12:16:54;30.20;46.50
41481;DHT22;27217;51.220;5.308;2023-06-01T12:19:22;30.10;45.20
41481;DHT22;27217;51.220;5.308;2023-06-01T12:21:52;29.30;46.40
41481;DHT22;27217;51.220;5.308;2023-06-01T12:24:29;29.70;45.80
41481;DHT22;27217;51.220;5.308;2023-06-01T12:26:59;29.90;46.10
41481;DHT22;27217;51.220;5.308;2023-06-01T12:29:38;29.20;46.70
41481;DHT22;27217;51.220;5.308;2023-06-01T12:32:05;29.70;46.30
41481;DHT22;27217;51.220;5.308;2023-06-01T12:34:31;29.60;46.20
41481;DHT22;27217;51.220;5.308;2023-06-01T12:36:57;29.30;46.20
41481;DHT22;27217;51.220;5.308;2023-06-01T12:39:33;29.60;46.90
41481;DHT22;27217;51.220;5.308;2023-06-01T12:42:03;30.40;45.30
41481;DHT22;27217;51.220;5.308;2023-06-01T12:44:31;30.00;45.90
41481;DHT22;27217;51.220;5.308;2023-06-01T12:47:17;30.10;45.30
41481;DHT22;27217;51.220;5.308;2023-06-01T12:50:02;30.10;45.50
41481;DHT22;27217;51.220;5.308;2023-06-01T12:52:28;31.50;43.80
41481;DHT22;27217;51.220;5.308;2023-06-01T12:54:53;30.20;44.70
41481;DHT22;27217;51.220;5.308;2023-06-01T12:57:19;29.40;44.70
41481;DHT22;27217;51.220;5.308;2023-06-01T12:59:45;29.70;44.60
41481;DHT22;27217;51.220;5.308;2023-06-01T13:02:11;29.70;44.60
41481;DHT22;27217;51.220;5.308;2023-06-01T13:04:39;30.70;42.40
41481;DHT22;27217;51.220;5.308;2023-06-01T13:07:06;30.70;43.30
41481;DHT22;27217;51.220;5.308;2023-06-01T13:09:32;31.70;42.80
41481;DHT22;27217;51.220;5.308;2023-06-01T13:11:57;32.60;41.20
41481;DHT22;27217;51.220;5.308;2023-06-01T13:14:23;33.60;40.70
41481;DHT22;27217;51.220;5.308;2023-06-01T13:16:49;33.10;39.80
41481;DHT22;27217;51.220;5.308;2023-06-01T13:19:15;31.40;42.10
41481;DHT22;27217;51.220;5.308;2023-06-01T13:21:42;31.40;42.20
41481;DHT22;27217;51.220;5.308;2023-06-01T13:24:08;31.50;41.80
41481;DHT22;27217;51.220;5.308;2023-06-01T13:26:36;31.00;42.90
41481;DHT22;27217;51.220;5.308;2023-06-01T13:29:01;31.30;41.90
41481;DHT22;27217;51.220;5.308;2023-06-01T13:31:32;30.60;42.90
41481;DHT22;27217;51.220;5.308;2023-06-01T13:33:58;31.30;41.50
41481;DHT22;27217;51.220;5.308;2023-06-01T13:36:24;30.70;42.90
41481;DHT22;27217;51.220;5.308;2023-06-01T13:38:50;29.80;44.20
41481;DHT22;27217;51.220;5.308;2023-06-01T13:41:16;30.10;43.50
41481;DHT22;27217;51.220;5.308;2023-06-01T13:43:41;30.10;43.30
41481;DHT22;27217;51.220;5.308;2023-06-01T13:46:08;29.70;43.40
41481;DHT22;27217;51.220;5.308;2023-06-01T13:48:37;30.40;42.80
41481;DHT22;27217;51.220;5.308;2023-06-01T13:51:04;31.90;41.30
41481;DHT22;27217;51.220;5.308;2023-06-01T13:53:30;32.10;41.10
41481;DHT22;27217;51.220;5.308;2023-06-01T13:55:58;31.30;42.10
41481;DHT22;27217;51.220;5.308;2023-06-01T13:58:24;31.30;41.90
41481;DHT22;27217;51.220;5.308;2023-06-01T14:00:50;32.30;40.60
41481;DHT22;27217;51.220;5.308;2023-06-01T14:03:15;32.80;39.70
41481;DHT22;27217;51.220;5.308;2023-06-01T14:05:41;33.50;39.80
41481;DHT22;27217;51.220;5.308;2023-06-01T14:08:07;32.40;41.40
41481;DHT22;27217;51.220;5.308;2023-06-01T14:10:33;32.60;41.40
41481;DHT22;27217;51.220;5.308;2023-06-01T14:13:00;32.00;41.50
41481;DHT22;27217;51.220;5.308;2023-06-01T14:15:25;32.40;41.70
41481;DHT22;27217;51.220;5.308;2023-06-01T14:17:52;33.30;40.90
41481;DHT22;27217;51.220;5.308;2023-06-01T14:20:18;32.50;41.60
41481;DHT22;27217;51.220;5.308;2023-06-01T14:22:43;33.10;41.50
41481;DHT22;27217;51.220;5.308;2023-06-01T14:25:09;33.30;40.40
41481;DHT22;27217;51.220;5.308;2023-06-01T14:27:35;33.30;40.10
41481;DHT22;27217;51.220;5.308;2023-06-01T14:30:04;32.90;40.90
41481;DHT22;27217;51.220;5.308;2023-06-01T14:32:30;33.10;41.00
41481;DHT22;27217;51.220;5.308;2023-06-01T14:34:56;32.40;42.10
41481;DHT22;27217;51.220;5.308;2023-06-01T14:37:22;31.80;42.80
41481;DHT22;27217;51.220;5.308;2023-06-01T14:39:48;31.30;42.60
41481;DHT22;27217;51.220;5.308;2023-06-01T14:42:16;32.00;42.10
41481;DHT22;27217;51.220;5.308;2023-06-01T14:44:41;31.10;43.00
41481;DHT22;27217;51.220;5.308;2023-06-01T14:47:07;30.40;43.80
41481;DHT22;27217;51.220;5.308;2023-06-01T14:49:33;31.00;43.60
41481;DHT22;27217;51.220;5.308;2023-06-01T14:51:59;30.10;44.80
41481;DHT22;27217;51.220;5.308;2023-06-01T14:54:25;30.90;43.70
41481;DHT22;27217;51.220;5.308;2023-06-01T14:56:51;30.30;44.50
41481;DHT22;27217;51.220;5.308;2023-06-01T14:59:17;29.60;44.60
41481;DHT22;27217;51.220;5.308;2023-06-01T15:01:43;30.00;45.00
41481;DHT22;27217;51.220;5.308;2023-06-01T15:04:10;30.80;44.30
41481;DHT22;27217;51.220;5.308;2023-06-01T15:06:35;30.90;44.50
41481;DHT22;27217;51.220;5.308;2023-06-01T15:09:03;30.60;44.30
41481;DHT22;27217;51.220;5.308;2023-06-01T15:11:29;30.10;45.50
41481;DHT22;27217;51.220;5.308;2023-06-01T15:13:56;30.60;43.90
41481;DHT22;27217;51.220;5.308;2023-06-01T15:16:21;31.00;42.80
41481;DHT22;27217;51.220;5.308;2023-06-01T15:18:47;30.90;42.50
41481;DHT22;27217;51.220;5.308;2023-06-01T15:21:13;30.20;43.30
41481;DHT22;27217;51.220;5.308;2023-06-01T15:23:40;29.70;44.00
41481;DHT22;27217;51.220;5.308;2023-06-01T15:26:06;29.50;44.60
41481;DHT22;27217;51.220;5.308;2023-06-01T15:28:32;29.70;44.50
41481;DHT22;27217;51.220;5.308;2023-06-01T15:30:57;29.80;44.40
41481;DHT22;27217;51.220;5.308;2023-06-01T15:33:23;29.70;43.90
41481;DHT22;27217;51.220;5.308;2023-06-01T15:35:49;29.30;45.00
41481;DHT22;27217;51.220;5.308;2023-06-01T15:38:15;30.10;43.00
41481;DHT22;27217;51.220;5.308;2023-06-01T15:40:41;30.70;42.40
41481;DHT22;27217;51.220;5.308;2023-06-01T15:43:08;30.40;42.80
41481;DHT22;27217;51.220;5.308;2023-06-01T15:45:34;30.30;43.10
41481;DHT22;27217;51.220;5.308;2023-06-01T15:48:00;29.70;44.20
41481;DHT22;27217;51.220;5.308;2023-06-01T15:50:26;29.40;44.30
41481;DHT22;27217;51.220;5.308;2023-06-01T15:52:52;30.00;43.60
41481;DHT22;27217;51.220;5.308;2023-06-01T15:55:18;30.30;43.10